Time;durP1;ratioP1;P1;durP2;ratioP2;P2;SDS_P1;SDS_P2;PMS_P1;PMS_P2;Temp;Humidity;BMP_temperature;BMP_pressure;BME280_temperature;BME280_humidity;BME280_pressure;Samples;Min_cycle;Max_cycle;Signal;HPM_P1;HPM_P2
2022/06/11 00:01:00;;;;;;;19.93;12.13;;;21.20;84.90;;;;;;5092460;28;20219;-67
2022/06/11 00:03:27;;;;;;;20.13;10.57;;;21.20;84.80;;;;;;5091426;28;20290;-68
2022/06/11 00:05:54;;;;;;;20.13;12.47;;;21.20;84.70;;;;;;5092177;28;20678;-68
2022/06/11 00:08:21;;;;;;;21.33;13.00;;;21.20;85.30;;;;;;5091728;28;20213;-69
2022/06/11 00:10:49;;;;;;;19.00;12.17;;;21.20;85.40;;;;;;5091705;28;20218;-68
2022/06/11 00:13:16;;;;;;;21.07;12.47;;;21.20;85.40;;;;;;5091808;28;20207;-68
2022/06/11 00:15:45;;;;;;;16.63;10.80;;;21.10;85.20;;;;;;5091673;28;20224;-68
2022/06/11 00:18:12;;;;;;;29.83;14.47;;;21.10;85.00;;;;;;5091635;28;20232;-66
2022/06/11 00:20:39;;;;;;;21.13;12.70;;;21.10;86.20;;;;;;5091543;28;20290;-67
2022/06/11 00:23:06;;;;;;;22.57;14.30;;;21.10;87.50;;;;;;5091190;28;20209;-68
2022/06/11 00:25:34;;;;;;;26.80;15.27;;;21.00;87.90;;;;;;5089426;28;20210;-69
2022/06/11 00:28:02;;;;;;;26.10;15.50;;;21.00;90.20;;;;;;5091837;28;20746;-68
2022/06/11 00:30:29;;;;;;;25.80;15.23;;;20.90;90.40;;;;;;5091257;28;20315;-69
2022/06/11 00:32:57;;;;;;;33.73;16.33;;;20.80;90.60;;;;;;5091385;28;20357;-68
2022/06/11 00:35:25;;;;;;;28.63;16.57;;;20.70;91.10;;;;;;5091281;28;20205;-69
2022/06/11 00:37:53;;;;;;;28.67;17.07;;;20.70;91.40;;;;;;5091983;28;20294;-68
2022/06/11 00:40:23;;;;;;;26.43;16.20;;;20.60;91.40;;;;;;5091408;28;20200;-68
2022/06/11 00:42:51;;;;;;;26.30;15.63;;;20.50;91.40;;;;;;5091366;28;20283;-69
2022/06/11 00:45:26;;;;;;;24.97;15.63;;;20.40;91.30;;;;;;5091411;28;20241;-68
2022/06/11 00:47:59;;;;;;;23.67;14.70;;;20.40;91.30;;;;;;5091572;28;20277;-69
2022/06/11 00:50:33;;;;;;;24.00;14.73;;;20.40;91.10;;;;;;5091280;28;20220;-69
2022/06/11 00:53:01;;;;;;;27.83;16.00;;;20.40;91.00;;;;;;5091224;28;20187;-68
2022/06/11 00:55:32;;;;;;;27.67;17.27;;;20.30;91.10;;;;;;5090623;28;20203;-68
2022/06/11 00:58:03;;;;;;;26.03;16.30;;;20.30;91.50;;;;;;5091727;28;20279;-69
2022/06/11 01:00:33;;;;;;;28.20;17.37;;;20.20;92.10;;;;;;5091201;28;20231;-67
2022/06/11 01:03:02;;;;;;;26.50;15.77;;;20.10;91.90;;;;;;5091019;28;20275;-69
2022/06/11 01:05:32;;;;;;;26.57;15.53;;;20.10;91.60;;;;;;5090642;28;20283;-69
2022/06/11 01:08:20;;;;;;;23.63;14.30;;;20.10;91.40;;;;;;5091677;28;20223;-69
2022/06/11 01:11:11;;;;;;;21.97;14.67;;;20.10;91.40;;;;;;5091525;28;20222;-68
2022/06/11 01:13:49;;;;;;;22.83;13.90;;;20.10;91.30;;;;;;5090660;28;20241;-68
2022/06/11 01:16:23;;;;;;;26.07;15.00;;;20.10;91.20;;;;;;5091517;28;20191;-68
2022/06/11 01:19:01;;;;;;;24.37;15.10;;;20.00;91.00;;;;;;5091476;28;20203;-69
2022/06/11 01:21:36;;;;;;;21.30;13.33;;;20.00;91.30;;;;;;5090735;28;20545;-68
2022/06/11 01:24:31;;;;;;;22.53;13.83;;;20.00;90.80;;;;;;5091482;28;20310;-69
2022/06/11 01:27:25;;;;;;;21.37;12.77;;;20.00;90.70;;;;;;5091165;28;20185;-68
2022/06/11 01:29:57;;;;;;;20.77;13.27;;;20.00;90.60;;;;;;5094599;28;20221;-67
2022/06/11 01:32:35;;;;;;;18.40;11.93;;;20.00;90.60;;;;;;5094658;28;20689;-68
2022/06/11 01:35:11;;;;;;;17.90;11.10;;;20.10;90.40;;;;;;5095396;28;20295;-68
2022/06/11 01:37:42;;;;;;;22.03;13.23;;;20.10;90.20;;;;;;5095019;28;20617;-70
2022/06/11 01:40:18;;;;;;;20.33;12.20;;;20.10;90.60;;;;;;5094895;28;20694;-69
2022/06/11 01:42:50;;;;;;;20.93;12.23;;;20.10;90.40;;;;;;5094903;28;20380;-70
2022/06/11 01:45:23;;;;;;;21.70;13.50;;;20.10;90.30;;;;;;5094761;28;20211;-67
2022/06/11 01:47:51;;;;;;;18.20;12.30;;;20.20;90.20;;;;;;5094870;28;20812;-68
2022/06/11 01:50:22;;;;;;;23.47;13.33;;;20.10;90.90;;;;;;5094612;28;20603;-69
2022/06/11 01:53:14;;;;;;;19.57;11.93;;;20.20;90.30;;;;;;5094738;28;20595;-69
2022/06/11 01:56:03;;;;;;;21.17;12.20;;;20.20;90.60;;;;;;5092761;28;20219;-69
2022/06/11 01:58:50;;;;;;;19.77;12.07;;;20.20;90.10;;;;;;5093767;28;20200;-69
2022/06/11 02:01:27;;;;;;;19.37;11.63;;;20.20;90.10;;;;;;5093842;28;20242;-70
2022/06/11 02:04:04;;;;;;;17.80;11.50;;;20.30;90.00;;;;;;5094752;28;20203;-69
2022/06/11 02:06:38;;;;;;;26.57;14.37;;;20.30;90.00;;;;;;5094193;28;20188;-68
2022/06/11 02:09:22;;;;;;;26.97;15.53;;;20.40;90.30;;;;;;5094289;28;20198;-69
2022/06/11 02:11:52;;;;;;;28.07;16.27;;;20.40;91.40;;;;;;5094281;28;20294;-69
2022/06/11 02:14:26;;;;;;;22.83;13.70;;;20.40;92.20;;;;;;5094401;28;20298;-68
2022/06/11 02:16:58;;;;;;;22.40;14.70;;;20.40;91.90;;;;;;5093575;28;20280;-69
2022/06/11 02:19:29;;;;;;;27.77;16.47;;;20.50;91.70;;;;;;5092574;28;20279;-68
2022/06/11 02:22:02;;;;;;;29.63;17.23;;;20.50;92.50;;;;;;5093844;28;20207;-68
2022/06/11 02:24:31;;;;;;;26.63;16.47;;;20.50;92.70;;;;;;5093909;28;20200;-69
2022/06/11 02:27:02;;;;;;;29.03;17.30;;;20.50;92.80;;;;;;5093927;28;20291;-69
2022/06/11 02:29:32;;;;;;;28.27;17.77;;;20.50;93.10;;;;;;5093918;28;20214;-69
2022/06/11 02:32:06;;;;;;;26.83;16.93;;;20.40;93.20;;;;;;5092905;28;20258;-69
2022/06/11 02:34:37;;;;;;;28.57;17.17;;;20.40;93.20;;;;;;5093837;28;20287;-70
2022/06/11 02:37:08;;;;;;;28.90;16.73;;;20.40;93.20;;;;;;5093359;28;20189;-68
2022/06/11 02:39:41;;;;;;;26.37;16.10;;;20.50;93.20;;;;;;5093965;28;20220;-69
2022/06/11 02:42:13;;;;;;;30.53;16.83;;;20.50;93.00;;;;;;5093834;28;20677;-68
2022/06/11 02:44:40;;;;;;;30.53;18.03;;;20.60;92.70;;;;;;5093980;28;20280;-68
2022/06/11 02:47:08;;;;;;;28.80;17.20;;;20.70;92.90;;;;;;5093301;28;20235;-69
2022/06/11 02:49:37;;;;;;;28.53;17.60;;;20.70;92.90;;;;;;5093613;28;20319;-68
2022/06/11 02:52:08;;;;;;;26.10;17.37;;;20.80;92.80;;;;;;5093157;28;20262;-70
2022/06/11 02:54:35;;;;;;;24.53;16.03;;;20.70;93.30;;;;;;5093265;28;20212;-69
2022/06/11 02:57:04;;;;;;;24.73;15.37;;;20.80;92.80;;;;;;5091668;28;20293;-68
2022/06/11 02:59:32;;;;;;;27.47;16.60;;;20.90;92.70;;;;;;5093464;28;20255;-68
2022/06/11 03:01:59;;;;;;;28.37;16.70;;;20.90;92.50;;;;;;5093080;28;20573;-69
2022/06/11 03:04:31;;;;;;;26.50;17.93;;;21.00;92.40;;;;;;5093170;28;20293;-67
2022/06/11 03:06:58;;;;;;;26.93;16.87;;;21.10;92.40;;;;;;5092860;28;20279;-69
2022/06/11 03:09:30;;;;;;;27.60;15.73;;;21.20;92.30;;;;;;5093417;28;20202;-69
2022/06/11 03:11:58;;;;;;;24.57;15.70;;;21.20;92.30;;;;;;5092679;28;20215;-68
2022/06/11 03:14:25;;;;;;;23.37;15.57;;;21.30;92.10;;;;;;5093248;28;20750;-68
2022/06/11 03:16:52;;;;;;;28.87;16.50;;;21.40;91.80;;;;;;5092697;28;20304;-69
2022/06/11 03:19:20;;;;;;;25.30;15.57;;;21.50;91.70;;;;;;5091981;28;20605;-69
2022/06/11 03:21:49;;;;;;;24.10;14.80;;;21.50;91.40;;;;;;5092721;28;20203;-68
2022/06/11 03:24:16;;;;;;;24.30;14.63;;;21.60;91.20;;;;;;5092896;28;20363;-68
2022/06/11 03:26:43;;;;;;;22.20;15.40;;;21.70;90.70;;;;;;5092889;28;20295;-70
2022/06/11 03:29:11;;;;;;;24.20;15.07;;;21.80;90.70;;;;;;5092379;28;20207;-67
2022/06/11 03:31:38;;;;;;;23.07;15.07;;;21.80;91.10;;;;;;5092368;28;20227;-68
2022/06/11 03:34:05;;;;;;;27.17;15.53;;;21.90;91.20;;;;;;5092725;28;20302;-69
2022/06/11 03:36:32;;;;;;;25.60;14.77;;;22.00;91.20;;;;;;5092548;28;20216;-69
2022/06/11 03:39:01;;;;;;;20.43;12.87;;;22.10;91.00;;;;;;5092244;28;20208;-69
2022/06/11 03:41:28;;;;;;;21.73;13.00;;;22.10;90.80;;;;;;5092948;28;20649;-68
2022/06/11 03:43:55;;;;;;;17.70;12.70;;;22.20;90.70;;;;;;5092049;28;20257;-70
2022/06/11 03:46:22;;;;;;;20.47;13.23;;;22.30;90.60;;;;;;5092619;28;20732;-69
2022/06/11 03:48:49;;;;;;;18.97;12.37;;;22.30;90.50;;;;;;5092688;28;20210;-70
2022/06/11 03:51:16;;;;;;;18.47;11.53;;;22.40;90.50;;;;;;5091487;28;20223;-69
2022/06/11 03:53:44;;;;;;;19.20;12.33;;;22.50;90.50;;;;;;5092133;28;20208;-70
2022/06/11 03:56:14;;;;;;;19.13;11.97;;;22.60;90.50;;;;;;5091858;28;20301;-69
2022/06/11 03:58:42;;;;;;;19.37;11.20;;;22.70;90.60;;;;;;5092056;28;20230;-69
2022/06/11 04:01:16;;;;;;;18.43;10.97;;;22.80;90.40;;;;;;5091873;28;20200;-71
2022/06/11 04:03:44;;;;;;;17.17;10.17;;;22.80;90.00;;;;;;5092434;28;20217;-69
2022/06/11 04:06:11;;;;;;;15.33;9.20;;;22.90;89.70;;;;;;5091385;28;20209;-69
2022/06/11 04:08:40;;;;;;;15.57;9.87;;;23.00;89.40;;;;;;5089586;28;20298;-69
2022/06/11 04:11:08;;;;;;;16.70;9.67;;;23.10;89.60;;;;;;5075469;28;20204;-70
2022/06/11 04:13:38;;;;;;;21.63;10.17;;;23.20;89.70;;;;;;5087592;28;20644;-69
2022/06/11 04:16:07;;;;;;;26.20;16.97;;;23.20;89.00;;;;;;5091516;28;20218;-70
2022/06/11 04:18:37;;;;;;;17.77;11.37;;;23.30;89.10;;;;;;5092351;28;20669;-69
2022/06/11 04:21:08;;;;;;;27.27;11.83;;;23.40;89.60;;;;;;5091875;28;20281;-70
2022/06/11 04:23:36;;;;;;;18.37;9.87;;;23.40;89.60;;;;;;5091583;28;20392;-69
2022/06/11 04:26:10;;;;;;;15.97;10.80;;;23.50;89.70;;;;;;5091571;28;20299;-69
2022/06/11 04:28:38;;;;;;;15.67;10.70;;;23.50;90.00;;;;;;5091843;28;20628;-70
2022/06/11 04:31:07;;;;;;;23.10;10.30;;;23.60;90.50;;;;;;5091375;28;20213;-70
2022/06/11 04:33:34;;;;;;;21.37;9.00;;;23.70;90.30;;;;;;5092061;28;20291;-69
2022/06/11 04:36:02;;;;;;;13.20;8.47;;;23.80;89.30;;;;;;5091511;28;20301;-69
2022/06/11 04:38:28;;;;;;;14.87;8.93;;;23.80;89.50;;;;;;5091790;28;20297;-70
2022/06/11 04:40:55;;;;;;;15.07;8.73;;;23.90;89.60;;;;;;5090822;28;20231;-69
2022/06/11 04:43:22;;;;;;;15.63;8.20;;;24.00;88.70;;;;;;5091597;28;20207;-69
2022/06/11 04:45:51;;;;;;;13.43;7.30;;;24.10;88.20;;;;;;5091231;28;20227;-69
2022/06/11 04:48:17;;;;;;;12.23;7.23;;;24.10;86.90;;;;;;5091404;28;20402;-71
2022/06/11 04:50:44;;;;;;;10.20;6.97;;;24.20;86.80;;;;;;5091214;28;20589;-71
2022/06/11 04:53:11;;;;;;;19.00;6.83;;;24.20;86.60;;;;;;5090567;28;20671;-70
2022/06/11 04:55:40;;;;;;;10.47;6.67;;;24.30;86.80;;;;;;5088346;28;20601;-70
2022/06/11 04:58:07;;;;;;;9.30;6.17;;;24.30;86.30;;;;;;5086446;28;20339;-71
2022/06/11 05:00:34;;;;;;;19.70;6.93;;;24.50;87.00;;;;;;5090816;28;20288;-68
2022/06/11 05:03:03;;;;;;;14.63;6.83;;;24.50;85.90;;;;;;5092462;28;20199;-70
2022/06/11 05:05:30;;;;;;;14.10;6.40;;;24.70;85.70;;;;;;5094711;28;20704;-69
2022/06/11 05:07:58;;;;;;;11.37;6.50;;;24.70;85.00;;;;;;5094930;28;20227;-69
2022/06/11 05:10:27;;;;;;;9.93;5.93;;;24.80;85.50;;;;;;5095405;28;20580;-69
2022/06/11 05:12:54;;;;;;;11.53;5.83;;;24.90;85.30;;;;;;5094373;28;20306;-70
2022/06/11 05:15:22;;;;;;;9.50;5.63;;;25.00;84.80;;;;;;5095382;28;20297;-69
2022/06/11 05:17:49;;;;;;;9.07;5.23;;;25.10;84.40;;;;;;5074793;28;20273;-69
2022/06/11 05:20:19;;;;;;;10.60;5.57;;;25.20;83.90;;;;;;5074807;28;20305;-71
2022/06/11 05:22:46;;;;;;;11.33;5.67;;;25.30;83.30;;;;;;5076128;28;20210;-70
2022/06/11 05:25:15;;;;;;;10.57;6.17;;;25.40;83.30;;;;;;5074779;28;20211;-69
2022/06/11 05:27:42;;;;;;;11.47;6.00;;;25.50;82.90;;;;;;5093709;28;20353;-70
2022/06/11 05:30:15;;;;;;;10.60;6.10;;;25.60;82.70;;;;;;5095043;28;20288;-72
2022/06/11 05:32:43;;;;;;;12.07;5.70;;;25.60;82.60;;;;;;5094800;28;20247;-73
2022/06/11 05:35:16;;;;;;;11.03;5.90;;;25.70;82.40;;;;;;5095328;28;20575;-70
2022/06/11 05:37:45;;;;;;;13.77;5.90;;;25.80;81.90;;;;;;5094676;28;20252;-70
2022/06/11 05:40:15;;;;;;;15.00;6.00;;;25.90;82.20;;;;;;5094887;28;20212;-69
2022/06/11 05:42:47;;;;;;;12.03;5.87;;;26.00;80.80;;;;;;5093948;28;20227;-69
2022/06/11 05:45:15;;;;;;;12.70;5.27;;;26.00;79.30;;;;;;5094665;28;20198;-71
2022/06/11 05:47:43;;;;;;;10.90;5.63;;;26.10;79.60;;;;;;5094377;28;20298;-70
2022/06/11 05:50:14;;;;;;;8.80;5.47;;;26.20;79.30;;;;;;5094384;28;20232;-71
2022/06/11 05:52:45;;;;;;;11.63;5.32;;;26.30;79.30;;;;;;5093767;28;20296;-71
2022/06/11 05:55:15;;;;;;;11.47;5.43;;;26.40;79.10;;;;;;5087196;28;20243;-71
2022/06/11 05:57:44;;;;;;;11.38;5.70;;;26.50;79.30;;;;;;5073628;28;20241;-70
2022/06/11 06:00:15;;;;;;;12.27;5.85;;;26.60;80.00;;;;;;5074285;28;20873;-70
2022/06/11 06:02:44;;;;;;;14.07;6.07;;;26.70;78.70;;;;;;5078618;28;20273;-71
2022/06/11 06:05:14;;;;;;;17.80;6.45;;;26.80;78.60;;;;;;5094576;28;20667;-71
2022/06/11 06:07:41;;;;;;;15.57;6.85;;;26.90;77.90;;;;;;5093453;28;20190;-70
2022/06/11 06:10:09;;;;;;;13.25;6.53;;;26.90;76.20;;;;;;5094608;28;20305;-70
2022/06/11 06:12:38;;;;;;;14.88;6.30;;;27.00;75.80;;;;;;5094638;28;20470;-71
2022/06/11 06:15:06;;;;;;;12.13;6.53;;;27.10;74.20;;;;;;5093412;28;20723;-70
2022/06/11 06:17:33;;;;;;;11.85;5.88;;;27.20;73.60;;;;;;5094339;28;20206;-70
2022/06/11 06:20:01;;;;;;;12.45;5.95;;;27.30;72.40;;;;;;5093600;28;20287;-71
2022/06/11 06:22:28;;;;;;;17.77;6.00;;;27.30;72.10;;;;;;5094065;28;20270;-69
2022/06/11 06:24:54;;;;;;;23.55;6.68;;;27.40;70.70;;;;;;5094163;28;20582;-69
2022/06/11 06:27:22;;;;;;;31.20;7.50;;;27.50;69.50;;;;;;5094143;28;20207;-69
2022/06/11 06:29:50;;;;;;;13.02;5.97;;;27.60;68.20;;;;;;5093272;28;20224;-69
2022/06/11 06:32:17;;;;;;;8.07;5.15;;;27.60;68.10;;;;;;5093281;28;20274;-69
2022/06/11 06:34:45;;;;;;;9.55;5.22;;;27.70;68.00;;;;;;5093368;28;20300;-70
2022/06/11 06:37:12;;;;;;;16.85;5.20;;;27.80;68.60;;;;;;5093536;28;20544;-69
2022/06/11 06:39:39;;;;;;;13.93;5.43;;;27.80;67.90;;;;;;5093499;28;20622;-69
2022/06/11 06:42:07;;;;;;;10.85;5.10;;;27.90;67.30;;;;;;5093843;28;20718;-69
2022/06/11 06:44:34;;;;;;;9.68;5.75;;;28.00;67.40;;;;;;5093659;28;20203;-76
2022/06/11 06:47:02;;;;;;;10.77;5.22;;;28.10;66.20;;;;;;5092798;28;20308;-70
2022/06/11 06:49:29;;;;;;;10.88;4.88;;;28.10;65.50;;;;;;5093628;28;20718;-70
2022/06/11 06:51:56;;;;;;;11.32;5.60;;;28.20;63.60;;;;;;5093361;28;20296;-70
2022/06/11 06:54:23;;;;;;;8.05;4.90;;;28.20;64.20;;;;;;5093698;28;20628;-70
2022/06/11 06:56:50;;;;;;;7.72;3.47;;;28.30;64.00;;;;;;5093003;28;20292;-70
2022/06/11 06:59:17;;;;;;;7.22;4.30;;;28.30;63.80;;;;;;5092831;28;20316;-70
2022/06/11 07:01:45;;;;;;;11.93;6.97;;;28.40;61.00;;;;;;5092378;28;20206;-70
2022/06/11 07:04:13;;;;;;;9.60;5.72;;;28.40;61.50;;;;;;5093243;28;20205;-71
2022/06/11 07:06:41;;;;;;;9.38;5.43;;;28.40;62.60;;;;;;5093278;28;20201;-68
2022/06/11 07:09:08;;;;;;;10.80;5.43;;;28.50;62.30;;;;;;5092430;28;20193;-70
2022/06/11 07:11:35;;;;;;;12.43;5.95;;;28.50;62.60;;;;;;5092818;28;20206;-70
2022/06/11 07:14:02;;;;;;;11.57;4.60;;;28.60;62.30;;;;;;5093507;28;20713;-71
2022/06/11 07:16:33;;;;;;;8.10;4.07;;;28.60;62.00;;;;;;5092201;28;20223;-71
2022/06/11 07:19:04;;;;;;;5.40;3.72;;;28.60;60.70;;;;;;5092615;28;20191;-69
2022/06/11 07:21:38;;;;;;;11.15;5.30;;;28.70;60.10;;;;;;5091935;28;20281;-71
2022/06/11 07:24:11;;;;;;;8.35;4.80;;;28.70;60.60;;;;;;5092876;28;20611;-70
2022/06/11 07:26:42;;;;;;;9.57;5.00;;;28.80;60.10;;;;;;5091385;28;20233;-72
2022/06/11 07:29:14;;;;;;;5.88;3.15;;;28.70;59.70;;;;;;5092368;28;20206;-71
2022/06/11 07:31:44;;;;;;;5.45;3.13;;;28.70;58.70;;;;;;5091837;28;20718;-70
2022/06/11 07:34:12;;;;;;;6.82;3.63;;;28.80;58.30;;;;;;5093123;28;20222;-70
2022/06/11 07:36:40;;;;;;;9.70;4.07;;;28.80;58.50;;;;;;5092663;28;20642;-70
2022/06/11 07:39:07;;;;;;;8.10;3.38;;;28.80;57.40;;;;;;5092405;28;20289;-70
2022/06/11 07:41:34;;;;;;;6.63;3.97;;;28.80;57.10;;;;;;5092362;28;20210;-70
2022/06/11 07:44:01;;;;;;;5.88;2.83;;;28.80;59.40;;;;;;5092756;28;20559;-71
2022/06/11 07:46:28;;;;;;;6.55;3.53;;;28.90;57.40;;;;;;5090567;28;20290;-70
2022/06/11 07:48:55;;;;;;;7.72;3.92;;;28.80;58.90;;;;;;5090620;28;20217;-71
2022/06/11 07:51:22;;;;;;;10.15;4.95;;;28.80;57.10;;;;;;5091400;28;20203;-71
2022/06/11 07:53:50;;;;;;;7.10;4.80;;;28.90;57.70;;;;;;5091243;28;20229;-71
2022/06/11 07:56:19;;;;;;;8.07;4.68;;;28.90;57.80;;;;;;5091184;28;20210;-71
2022/06/11 07:58:46;;;;;;;8.23;4.68;;;28.90;58.60;;;;;;5089097;28;20260;-70
2022/06/11 08:01:13;;;;;;;7.93;4.90;;;28.90;58.60;;;;;;5091050;28;20198;-72
2022/06/11 08:03:40;;;;;;;8.88;5.25;;;29.00;58.90;;;;;;5090834;28;20283;-71
2022/06/11 08:06:08;;;;;;;9.38;4.40;;;29.10;59.30;;;;;;5091295;28;20543;-71
2022/06/11 08:08:35;;;;;;;8.10;4.35;;;29.10;57.40;;;;;;5090506;28;20202;-71
2022/06/11 08:11:06;;;;;;;8.30;4.35;;;29.00;58.60;;;;;;5090641;28;20203;-72
2022/06/11 08:13:33;;;;;;;8.38;5.05;;;29.00;58.80;;;;;;5091933;28;20736;-71
2022/06/11 08:16:01;;;;;;;6.78;4.18;;;29.10;59.30;;;;;;5086129;28;20305;-72
2022/06/11 08:18:30;;;;;;;11.07;5.10;;;29.10;59.30;;;;;;5092012;28;20630;-70
2022/06/11 08:20:57;;;;;;;10.40;5.20;;;29.10;59.00;;;;;;5091507;28;20234;-72
2022/06/11 08:23:24;;;;;;;9.48;5.15;;;29.10;58.40;;;;;;5091308;28;20737;-71
2022/06/11 08:25:52;;;;;;;6.63;4.57;;;29.10;57.60;;;;;;5079094;28;20207;-70
2022/06/11 08:28:21;;;;;;;7.93;4.82;;;29.00;57.40;;;;;;5082724;28;20226;-71
2022/06/11 08:30:49;;;;;;;9.88;6.28;;;29.10;57.60;;;;;;5090292;28;20317;-74
2022/06/11 08:33:16;;;;;;;10.13;5.53;;;29.10;56.50;;;;;;5091792;28;20233;-75
2022/06/11 08:35:43;;;;;;;9.82;6.28;;;29.10;57.20;;;;;;5090628;28;20226;-76
2022/06/11 08:38:11;;;;;;;8.38;5.30;;;29.10;57.80;;;;;;5091433;28;20300;-74
2022/06/11 08:40:41;;;;;;;9.32;5.60;;;29.20;58.00;;;;;;5092452;28;20206;-75
2022/06/11 08:43:17;;;;;;;9.40;5.28;;;29.30;58.60;;;;;;5092140;28;20245;-73
2022/06/11 08:45:48;;;;;;;9.55;5.03;;;29.30;57.70;;;;;;5091812;28;20195;-73
2022/06/11 08:48:20;;;;;;;7.75;5.32;;;29.20;57.50;;;;;;5091898;28;20653;-74
2022/06/11 08:50:59;;;;;;;8.60;5.25;;;29.30;57.60;;;;;;5092230;28;20615;-75
2022/06/11 08:53:26;;;;;;;9.25;5.43;;;29.20;56.20;;;;;;5092194;28;20210;-75
2022/06/11 08:55:53;;;;;;;8.57;5.68;;;29.20;55.60;;;;;;5092551;28;20207;-76
2022/06/11 08:58:33;;;;;;;7.53;5.32;;;29.20;55.80;;;;;;5091744;28;20612;-77
2022/06/11 09:01:07;;;;;;;11.02;5.55;;;29.30;56.40;;;;;;5092310;28;20221;-75
2022/06/11 09:04:10;;;;;;;13.77;7.35;;;29.20;56.50;;;;;;5092310;28;20191;-74
2022/06/11 09:07:06;;;;;;;8.02;5.25;;;29.20;56.30;;;;;;5075991;28;20712;-76
2022/06/11 09:09:45;;;;;;;9.23;5.30;;;29.20;56.40;;;;;;5092070;28;20630;-74
2022/06/11 09:12:32;;;;;;;8.43;5.43;;;29.30;56.10;;;;;;5092098;28;20210;-75
2022/06/11 09:15:12;;;;;;;12.30;5.15;;;29.30;57.40;;;;;;5092034;28;20863;-74
2022/06/11 09:18:27;;;;;;;7.65;4.95;;;29.30;57.30;;;;;;5091635;28;20281;-75
2022/06/11 09:21:02;;;;;;;9.75;5.47;;;29.30;57.10;;;;;;5029033;28;20299;-77
2022/06/11 09:23:45;;;;;;;8.68;5.30;;;29.40;57.50;;;;;;5080414;28;20205;-75
2022/06/11 09:26:22;;;;;;;9.02;5.38;;;29.40;56.60;;;;;;5092091;28;20195;-75
2022/06/11 09:29:05;;;;;;;9.68;5.80;;;29.40;56.20;;;;;;5091728;28;20190;-75
2022/06/11 09:31:41;;;;;;;10.30;5.50;;;29.50;56.00;;;;;;5091652;28;20285;-75
2022/06/11 09:34:12;;;;;;;8.82;5.43;;;29.60;57.20;;;;;;5091266;28;20305;-75
2022/06/11 09:36:41;;;;;;;9.00;5.25;;;29.60;57.40;;;;;;5091678;28;20278;-75
2022/06/11 09:39:17;;;;;;;9.48;5.10;;;29.70;57.70;;;;;;5091484;28;20206;-75
2022/06/11 09:41:56;;;;;;;7.22;4.80;;;29.70;59.00;;;;;;5091686;28;20198;-77
2022/06/11 09:44:33;;;;;;;6.45;4.60;;;29.80;58.70;;;;;;5091709;28;20290;-73
2022/06/11 09:47:06;;;;;;;9.05;4.97;;;29.80;58.50;;;;;;5091568;28;20279;-75
2022/06/11 09:49:41;;;;;;;7.93;5.18;;;29.90;57.30;;;;;;5092239;28;20278;-75
2022/06/11 09:52:14;;;;;;;7.53;5.22;;;29.90;56.90;;;;;;5094832;28;20244;-76
2022/06/11 09:54:54;;;;;;;8.38;5.28;;;30.00;56.40;;;;;;5095243;28;20628;-75
2022/06/11 09:57:29;;;;;;;11.82;5.57;;;30.00;55.80;;;;;;5094527;28;20670;-76
2022/06/11 10:00:00;;;;;;;10.23;5.30;;;30.00;55.40;;;;;;5095073;28;20273;-74
2022/06/11 10:02:35;;;;;;;8.40;5.38;;;30.10;56.20;;;;;;5094954;28;20688;-75
2022/06/11 10:05:09;;;;;;;10.90;5.43;;;30.10;54.80;;;;;;5094354;28;20217;-76
2022/06/11 10:07:41;;;;;;;8.00;5.53;;;30.10;55.10;;;;;;5094867;28;20277;-73
2022/06/11 10:10:14;;;;;;;7.25;5.43;;;30.10;53.90;;;;;;5094369;28;20287;-76
2022/06/11 10:12:45;;;;;;;10.10;5.90;;;30.00;54.70;;;;;;5094672;28;20250;-75
2022/06/11 10:15:17;;;;;;;8.57;5.70;;;29.90;53.60;;;;;;5094200;28;20210;-75
2022/06/11 10:17:52;;;;;;;8.52;5.65;;;29.90;52.50;;;;;;5094560;28;20195;-76
2022/06/11 10:20:25;;;;;;;7.82;5.97;;;29.90;52.80;;;;;;5094620;28;20697;-77
2022/06/11 10:22:58;;;;;;;8.18;5.53;;;30.00;53.00;;;;;;5094650;28;20641;-73
2022/06/11 10:25:29;;;;;;;8.00;5.38;;;30.00;52.60;;;;;;5094583;28;20187;-74
2022/06/11 10:28:04;;;;;;;8.82;5.47;;;29.90;51.90;;;;;;5095300;28;20235;-76
2022/06/11 10:30:50;;;;;;;9.00;5.75;;;29.90;52.50;;;;;;5094564;28;20279;-74
2022/06/11 10:33:27;;;;;;;10.75;5.10;;;29.90;52.50;;;;;;5094536;28;20209;-78
2022/06/11 10:36:02;;;;;;;7.82;5.40;;;29.90;51.30;;;;;;5095276;28;20223;-75
2022/06/11 10:38:42;;;;;;;17.40;5.28;;;30.00;52.30;;;;;;5094384;28;20386;-77
2022/06/11 10:41:15;;;;;;;16.17;6.82;;;30.10;52.70;;;;;;5093855;28;20278;-75
2022/06/11 10:43:48;;;;;;;10.02;5.20;;;30.20;53.40;;;;;;5094652;28;20196;-76
2022/06/11 10:46:15;;;;;;;8.48;5.40;;;30.30;53.80;;;;;;5093958;28;20283;-76
2022/06/11 10:48:42;;;;;;;8.15;5.35;;;30.40;52.10;;;;;;5093884;28;20295;-75
2022/06/11 10:51:16;;;;;;;9.15;6.00;;;30.40;51.80;;;;;;5093679;28;20298;-75
2022/06/11 10:54:02;;;;;;;9.05;5.65;;;30.40;52.90;;;;;;5094038;28;20218;-77
2022/06/11 10:56:38;;;;;;;8.40;5.30;;;30.60;53.10;;;;;;5093934;28;20705;-75
2022/06/11 10:59:13;;;;;;;8.52;5.65;;;30.70;52.90;;;;;;5093710;28;20192;-75
2022/06/11 11:01:45;;;;;;;8.20;5.55;;;30.80;52.80;;;;;;5093396;28;20200;-75
2022/06/11 11:04:36;;;;;;;9.02;5.28;;;30.90;52.70;;;;;;5093423;28;20278;-75
2022/06/11 11:07:18;;;;;;;7.65;4.90;;;30.90;50.40;;;;;;5084653;28;20261;-75
2022/06/11 11:09:45;;;;;;;8.18;5.13;;;30.80;50.60;;;;;;5093951;28;20634;-76
2022/06/11 11:12:22;;;;;;;8.65;5.07;;;30.80;50.60;;;;;;5093691;28;20241;-76
2022/06/11 11:14:59;;;;;;;8.85;5.10;;;30.80;49.50;;;;;;5093950;28;20618;-76
2022/06/11 11:17:28;;;;;;;7.05;4.95;;;30.60;49.70;;;;;;5093974;28;20275;-75
2022/06/11 11:22:56;;;;;;;8.27;5.13;;;30.70;50.70;;;;;;5093519;28;20218;-75
2022/06/11 11:25:30;;;;;;;7.43;4.80;;;30.80;51.10;;;;;;5093620;28;20757;-76
2022/06/11 11:27:58;;;;;;;8.60;5.70;;;30.80;52.50;;;;;;5093631;28;20192;-74
2022/06/11 11:30:32;;;;;;;9.40;5.50;;;30.90;52.10;;;;;;5093756;28;20646;-75
2022/06/11 11:33:14;;;;;;;6.93;4.97;;;30.90;52.10;;;;;;5093396;28;20205;-75
2022/06/11 11:35:42;;;;;;;8.20;5.03;;;30.90;51.40;;;;;;5093477;28;20314;-75
2022/06/11 11:38:17;;;;;;;7.85;4.72;;;30.90;51.20;;;;;;5093334;28;20235;-75
2022/06/11 11:40:53;;;;;;;6.78;5.10;;;30.90;51.80;;;;;;5093184;28;20278;-77
2022/06/11 11:43:22;;;;;;;8.82;5.20;;;31.00;52.20;;;;;;5093559;28;20548;-75
2022/06/11 11:45:56;;;;;;;8.65;5.43;;;31.00;51.00;;;;;;5093224;28;20204;-76
2022/06/11 11:48:28;;;;;;;10.07;5.20;;;31.00;50.00;;;;;;5092871;28;20202;-75
2022/06/11 11:50:57;;;;;;;8.90;5.45;;;30.80;51.60;;;;;;5091280;28;20192;-75
2022/06/11 11:53:29;;;;;;;9.23;6.40;;;30.80;51.10;;;;;;5091377;28;20563;-75
2022/06/11 11:55:59;;;;;;;9.10;5.53;;;30.80;51.20;;;;;;5091407;28;20216;-74
2022/06/11 11:58:32;;;;;;;7.90;5.40;;;30.80;52.40;;;;;;5072070;28;20247;-74
2022/06/11 12:01:05;;;;;;;7.05;4.78;;;30.80;52.70;;;;;;5091516;28;20286;-77
2022/06/11 12:03:38;;;;;;;10.70;5.40;;;30.80;52.10;;;;;;5091547;28;20199;-75
2022/06/11 12:06:07;;;;;;;7.97;5.30;;;30.80;52.00;;;;;;5090048;28;20279;-75
2022/06/11 12:08:41;;;;;;;7.57;5.00;;;30.90;52.00;;;;;;5090523;28;20724;-73
2022/06/11 12:11:08;;;;;;;12.25;4.97;;;30.90;51.50;;;;;;5087756;28;20490;-74
2022/06/11 12:13:45;;;;;;;10.48;4.93;;;30.90;51.80;;;;;;5086951;28;20725;-73
2022/06/11 12:16:26;;;;;;;6.85;4.80;;;30.90;51.60;;;;;;5088393;28;20206;-73
2022/06/11 12:18:56;;;;;;;11.73;5.90;;;30.90;51.80;;;;;;5088925;28;20236;-72
2022/06/11 12:21:26;;;;;;;7.90;5.40;;;31.00;51.10;;;;;;5089072;28;20274;-71
2022/06/11 12:23:59;;;;;;;10.27;6.22;;;30.90;50.20;;;;;;5091863;28;20783;-72
2022/06/11 12:26:29;;;;;;;8.20;5.00;;;30.90;50.70;;;;;;5089287;28;20391;-71
2022/06/11 12:29:00;;;;;;;9.32;4.97;;;30.80;49.80;;;;;;5091816;28;20559;-72
2022/06/11 12:31:29;;;;;;;7.07;5.13;;;30.80;51.20;;;;;;5089351;28;20282;-72
2022/06/11 12:33:57;;;;;;;13.27;5.38;;;30.80;50.40;;;;;;5088233;28;20231;-73
2022/06/11 12:36:38;;;;;;;10.38;5.40;;;30.80;51.00;;;;;;5089168;28;20310;-74
2022/06/11 12:39:13;;;;;;;9.93;5.53;;;30.80;51.00;;;;;;5088594;28;20195;-73
2022/06/11 12:41:47;;;;;;;8.48;5.55;;;30.80;50.00;;;;;;5091286;28;20279;-77
2022/06/11 12:44:41;;;;;;;15.55;5.47;;;30.80;49.70;;;;;;5091834;28;20184;-74
2022/06/11 12:47:25;;;;;;;11.82;5.63;;;30.80;50.40;;;;;;5091785;28;20219;-74
2022/06/11 12:50:02;;;;;;;8.25;5.40;;;30.80;50.40;;;;;;5089124;28;20314;-73
2022/06/11 12:52:38;;;;;;;12.90;5.63;;;30.90;50.60;;;;;;5091409;28;20602;-76
2022/06/11 12:55:44;;;;;;;9.63;5.25;;;30.90;49.90;;;;;;5090909;28;20223;-73
2022/06/11 12:58:23;;;;;;;9.25;4.97;;;30.90;49.90;;;;;;5090116;28;20303;-76
2022/06/11 13:00:56;;;;;;;6.78;4.93;;;30.90;49.50;;;;;;5091344;28;20600;-73
2022/06/11 13:03:57;;;;;;;9.50;5.47;;;30.90;49.60;;;;;;5090163;28;20283;-76